sensor_id;sensor_type;location;lat;lon;timestamp;P1;durP1;ratioP1;P2;durP2;ratioP2
84521;SDS011;74758;50.066;20.008;2024-03-06T00:00:10;79.10;;;30.70;;
84521;SDS011;74758;50.066;20.008;2024-03-06T00:01:13;73.50;;;32.50;;
84521;SDS011;74758;50.066;20.008;2024-03-06T00:02:14;77.90;;;31.50;;
84521;SDS011;74758;50.066;20.008;2024-03-06T00:03:16;79.00;;;33.50;;
84521;SDS011;74758;50.066;20.008;2024-03-06T00:04:18;78.40;;;31.10;;
84521;SDS011;74758;50.066;20.008;2024-03-06T00:05:20;72.70;;;31.50;;
84521;SDS011;74758;50.066;20.008;2024-03-06T00:06:22;73.20;;;31.10;;
84521;SDS011;74758;50.066;20.008;2024-03-06T00:07:23;74.00;;;32.10;;
84521;SDS011;74758;50.066;20.008;2024-03-06T00:08:25;68.10;;;30.50;;
84521;SDS011;74758;50.066;20.008;2024-03-06T00:09:27;71.40;;;30.70;;
84521;SDS011;74758;50.066;20.008;2024-03-06T00:10:29;75.00;;;32.90;;
84521;SDS011;74758;50.066;20.008;2024-03-06T00:11:31;75.70;;;32.30;;
84521;SDS011;74758;50.066;20.008;2024-03-06T00:12:34;73.40;;;30.40;;
84521;SDS011;74758;50.066;20.008;2024-03-06T00:13:35;77.20;;;30.40;;
84521;SDS011;74758;50.066;20.008;2024-03-06T00:14:37;71.40;;;31.10;;
84521;SDS011;74758;50.066;20.008;2024-03-06T00:15:39;70.20;;;31.00;;
84521;SDS011;74758;50.066;20.008;2024-03-06T00:16:42;73.70;;;30.40;;
84521;SDS011;74758;50.066;20.008;2024-03-06T00:17:44;77.50;;;31.80;;
84521;SDS011;74758;50.066;20.008;2024-03-06T00:18:46;71.70;;;30.90;;
84521;SDS011;74758;50.066;20.008;2024-03-06T00:19:48;75.30;;;33.30;;
84521;SDS011;74758;50.066;20.008;2024-03-06T00:20:50;75.60;;;30.60;;
84521;SDS011;74758;50.066;20.008;2024-03-06T00:21:51;72.80;;;30.50;;
84521;SDS011;74758;50.066;20.008;2024-03-06T00:22:53;66.70;;;29.50;;
84521;SDS011;74758;50.066;20.008;2024-03-06T00:23:55;69.60;;;30.00;;
84521;SDS011;74758;50.066;20.008;2024-03-06T00:24:57;72.80;;;29.30;;
84521;SDS011;74758;50.066;20.008;2024-03-06T00:25:58;73.80;;;32.00;;
84521;SDS011;74758;50.066;20.008;2024-03-06T00:27:00;65.30;;;29.30;;
84521;SDS011;74758;50.066;20.008;2024-03-06T00:28:03;72.80;;;30.10;;
84521;SDS011;74758;50.066;20.008;2024-03-06T00:29:05;74.20;;;30.30;;
84521;SDS011;74758;50.066;20.008;2024-03-06T00:30:07;69.70;;;29.70;;
84521;SDS011;74758;50.066;20.008;2024-03-06T00:31:09;72.20;;;30.60;;
84521;SDS011;74758;50.066;20.008;2024-03-06T00:32:11;76.20;;;31.30;;
84521;SDS011;74758;50.066;20.008;2024-03-06T00:33:13;73.90;;;31.80;;
84521;SDS011;74758;50.066;20.008;2024-03-06T00:34:14;79.10;;;31.00;;
84521;SDS011;74758;50.066;20.008;2024-03-06T00:35:16;72.70;;;28.80;;
84521;SDS011;74758;50.066;20.008;2024-03-06T00:36:18;71.40;;;31.30;;
84521;SDS011;74758;50.066;20.008;2024-03-06T00:37:19;74.90;;;31.40;;
84521;SDS011;74758;50.066;20.008;2024-03-06T00:38:21;74.60;;;30.20;;
84521;SDS011;74758;50.066;20.008;2024-03-06T00:39:23;76.20;;;35.80;;
84521;SDS011;74758;50.066;20.008;2024-03-06T00:40:25;71.40;;;30.30;;
84521;SDS011;74758;50.066;20.008;2024-03-06T00:41:27;73.80;;;30.40;;
84521;SDS011;74758;50.066;20.008;2024-03-06T00:42:29;72.60;;;31.60;;
84521;SDS011;74758;50.066;20.008;2024-03-06T00:43:31;65.70;;;29.70;;
84521;SDS011;74758;50.066;20.008;2024-03-06T00:44:33;68.90;;;30.50;;
84521;SDS011;74758;50.066;20.008;2024-03-06T00:45:34;72.10;;;30.50;;
84521;SDS011;74758;50.066;20.008;2024-03-06T00:46:36;69.90;;;30.80;;
84521;SDS011;74758;50.066;20.008;2024-03-06T00:47:38;74.90;;;31.50;;
84521;SDS011;74758;50.066;20.008;2024-03-06T00:48:40;76.10;;;30.20;;
84521;SDS011;74758;50.066;20.008;2024-03-06T00:49:42;71.90;;;29.40;;
84521;SDS011;74758;50.066;20.008;2024-03-06T00:50:44;75.00;;;30.90;;
84521;SDS011;74758;50.066;20.008;2024-03-06T00:51:46;77.20;;;30.30;;
84521;SDS011;74758;50.066;20.008;2024-03-06T00:52:50;70.60;;;29.80;;
84521;SDS011;74758;50.066;20.008;2024-03-06T00:53:52;74.60;;;30.30;;
84521;SDS011;74758;50.066;20.008;2024-03-06T00:54:53;76.40;;;32.90;;
84521;SDS011;74758;50.066;20.008;2024-03-06T00:55:55;72.60;;;29.90;;
84521;SDS011;74758;50.066;20.008;2024-03-06T00:56:57;70.80;;;29.50;;
84521;SDS011;74758;50.066;20.008;2024-03-06T00:57:59;74.90;;;29.10;;
84521;SDS011;74758;50.066;20.008;2024-03-06T00:59:01;78.40;;;29.80;;
84521;SDS011;74758;50.066;20.008;2024-03-06T01:00:03;75.50;;;31.80;;
84521;SDS011;74758;50.066;20.008;2024-03-06T01:01:15;78.80;;;30.00;;
84521;SDS011;74758;50.066;20.008;2024-03-06T01:02:18;76.80;;;31.70;;
84521;SDS011;74758;50.066;20.008;2024-03-06T01:03:20;71.80;;;31.70;;
84521;SDS011;74758;50.066;20.008;2024-03-06T01:04:22;72.30;;;31.40;;
84521;SDS011;74758;50.066;20.008;2024-03-06T01:05:24;72.20;;;30.90;;
84521;SDS011;74758;50.066;20.008;2024-03-06T01:06:25;73.60;;;30.60;;
84521;SDS011;74758;50.066;20.008;2024-03-06T01:07:27;76.90;;;31.40;;
84521;SDS011;74758;50.066;20.008;2024-03-06T01:08:29;72.20;;;31.70;;
84521;SDS011;74758;50.066;20.008;2024-03-06T01:09:33;76.70;;;32.70;;
84521;SDS011;74758;50.066;20.008;2024-03-06T01:10:35;74.30;;;31.40;;
84521;SDS011;74758;50.066;20.008;2024-03-06T01:11:37;71.50;;;31.10;;
84521;SDS011;74758;50.066;20.008;2024-03-06T01:12:39;74.90;;;30.20;;
84521;SDS011;74758;50.066;20.008;2024-03-06T01:13:41;73.20;;;30.30;;
84521;SDS011;74758;50.066;20.008;2024-03-06T01:14:43;75.60;;;30.70;;
84521;SDS011;74758;50.066;20.008;2024-03-06T01:15:45;79.30;;;32.40;;
84521;SDS011;74758;50.066;20.008;2024-03-06T01:16:47;75.40;;;30.80;;
84521;SDS011;74758;50.066;20.008;2024-03-06T01:17:49;72.70;;;32.30;;
84521;SDS011;74758;50.066;20.008;2024-03-06T01:18:51;76.70;;;31.10;;
84521;SDS011;74758;50.066;20.008;2024-03-06T01:19:53;73.70;;;31.50;;
84521;SDS011;74758;50.066;20.008;2024-03-06T01:20:55;77.10;;;30.70;;
84521;SDS011;74758;50.066;20.008;2024-03-06T01:21:57;78.50;;;31.90;;
84521;SDS011;74758;50.066;20.008;2024-03-06T01:22:58;76.30;;;31.10;;
84521;SDS011;74758;50.066;20.008;2024-03-06T01:24:00;75.80;;;31.50;;
84521;SDS011;74758;50.066;20.008;2024-03-06T01:25:02;78.60;;;32.80;;
84521;SDS011;74758;50.066;20.008;2024-03-06T01:26:06;77.10;;;31.10;;
84521;SDS011;74758;50.066;20.008;2024-03-06T01:27:08;74.40;;;29.80;;
84521;SDS011;74758;50.066;20.008;2024-03-06T01:28:10;68.80;;;28.90;;
84521;SDS011;74758;50.066;20.008;2024-03-06T01:29:11;73.60;;;31.00;;
84521;SDS011;74758;50.066;20.008;2024-03-06T01:30:13;71.50;;;28.70;;
84521;SDS011;74758;50.066;20.008;2024-03-06T01:31:15;74.40;;;33.20;;
84521;SDS011;74758;50.066;20.008;2024-03-06T01:32:16;67.80;;;30.10;;
84521;SDS011;74758;50.066;20.008;2024-03-06T01:33:18;70.90;;;28.40;;
84521;SDS011;74758;50.066;20.008;2024-03-06T01:34:20;72.30;;;29.10;;
84521;SDS011;74758;50.066;20.008;2024-03-06T01:35:23;70.90;;;28.80;;
84521;SDS011;74758;50.066;20.008;2024-03-06T01:36:25;69.40;;;30.00;;
84521;SDS011;74758;50.066;20.008;2024-03-06T01:37:27;66.80;;;27.40;;
84521;SDS011;74758;50.066;20.008;2024-03-06T01:38:28;63.50;;;25.60;;
84521;SDS011;74758;50.066;20.008;2024-03-06T01:39:30;78.90;;;29.70;;
84521;SDS011;74758;50.066;20.008;2024-03-06T01:40:32;64.70;;;26.20;;
84521;SDS011;74758;50.066;20.008;2024-03-06T01:41:33;69.00;;;27.20;;
84521;SDS011;74758;50.066;20.008;2024-03-06T01:42:35;67.90;;;27.50;;
84521;SDS011;74758;50.066;20.008;2024-03-06T01:43:37;67.30;;;27.50;;
84521;SDS011;74758;50.066;20.008;2024-03-06T01:44:42;62.50;;;26.80;;
84521;SDS011;74758;50.066;20.008;2024-03-06T01:45:44;62.60;;;26.80;;
84521;SDS011;74758;50.066;20.008;2024-03-06T01:46:47;69.10;;;26.40;;
84521;SDS011;74758;50.066;20.008;2024-03-06T01:47:49;68.20;;;28.70;;
84521;SDS011;74758;50.066;20.008;2024-03-06T01:48:52;62.40;;;26.50;;
84521;SDS011;74758;50.066;20.008;2024-03-06T01:49:54;72.10;;;27.70;;
84521;SDS011;74758;50.066;20.008;2024-03-06T01:50:57;71.80;;;28.10;;
84521;SDS011;74758;50.066;20.008;2024-03-06T01:52:03;68.40;;;27.70;;
84521;SDS011;74758;50.066;20.008;2024-03-06T01:53:05;66.20;;;27.30;;
84521;SDS011;74758;50.066;20.008;2024-03-06T01:54:07;65.20;;;27.80;;
84521;SDS011;74758;50.066;20.008;2024-03-06T01:55:09;67.60;;;27.00;;
84521;SDS011;74758;50.066;20.008;2024-03-06T01:56:13;67.20;;;25.80;;
84521;SDS011;74758;50.066;20.008;2024-03-06T01:57:19;69.90;;;24.90;;
84521;SDS011;74758;50.066;20.008;2024-03-06T01:58:21;71.90;;;27.00;;
84521;SDS011;74758;50.066;20.008;2024-03-06T01:59:25;75.30;;;27.00;;
84521;SDS011;74758;50.066;20.008;2024-03-06T02:00:37;79.20;;;27.50;;
84521;SDS011;74758;50.066;20.008;2024-03-06T02:01:39;68.30;;;25.90;;
84521;SDS011;74758;50.066;20.008;2024-03-06T02:02:42;66.20;;;28.00;;
84521;SDS011;74758;50.066;20.008;2024-03-06T02:03:45;67.10;;;24.90;;
84521;SDS011;74758;50.066;20.008;2024-03-06T02:04:47;69.70;;;27.60;;
84521;SDS011;74758;50.066;20.008;2024-03-06T02:05:49;64.90;;;27.50;;
84521;SDS011;74758;50.066;20.008;2024-03-06T02:06:52;65.70;;;28.30;;
84521;SDS011;74758;50.066;20.008;2024-03-06T02:07:53;68.30;;;27.30;;
84521;SDS011;74758;50.066;20.008;2024-03-06T02:08:55;62.50;;;23.80;;
84521;SDS011;74758;50.066;20.008;2024-03-06T02:09:57;64.20;;;25.00;;
84521;SDS011;74758;50.066;20.008;2024-03-06T02:10:59;66.50;;;25.30;;
84521;SDS011;74758;50.066;20.008;2024-03-06T02:12:04;66.10;;;25.90;;
84521;SDS011;74758;50.066;20.008;2024-03-06T02:13:07;77.30;;;28.90;;
84521;SDS011;74758;50.066;20.008;2024-03-06T02:14:11;68.90;;;28.00;;
84521;SDS011;74758;50.066;20.008;2024-03-06T02:15:14;60.40;;;25.90;;
84521;SDS011;74758;50.066;20.008;2024-03-06T02:16:16;59.20;;;22.10;;
84521;SDS011;74758;50.066;20.008;2024-03-06T02:17:17;60.90;;;25.90;;
84521;SDS011;74758;50.066;20.008;2024-03-06T02:18:19;64.80;;;24.00;;
84521;SDS011;74758;50.066;20.008;2024-03-06T02:19:21;66.20;;;25.30;;
84521;SDS011;74758;50.066;20.008;2024-03-06T02:20:23;60.00;;;25.20;;
84521;SDS011;74758;50.066;20.008;2024-03-06T02:21:26;65.20;;;25.40;;
84521;SDS011;74758;50.066;20.008;2024-03-06T02:22:28;60.40;;;24.90;;
84521;SDS011;74758;50.066;20.008;2024-03-06T02:23:30;63.20;;;25.00;;
84521;SDS011;74758;50.066;20.008;2024-03-06T02:24:32;57.80;;;24.90;;
84521;SDS011;74758;50.066;20.008;2024-03-06T02:25:33;62.90;;;25.70;;
84521;SDS011;74758;50.066;20.008;2024-03-06T02:26:35;59.10;;;24.80;;
84521;SDS011;74758;50.066;20.008;2024-03-06T02:27:37;56.40;;;24.10;;
84521;SDS011;74758;50.066;20.008;2024-03-06T02:28:39;62.50;;;26.20;;
84521;SDS011;74758;50.066;20.008;2024-03-06T02:29:40;61.60;;;24.70;;
84521;SDS011;74758;50.066;20.008;2024-03-06T02:30:42;63.20;;;23.70;;
84521;SDS011;74758;50.066;20.008;2024-03-06T02:31:44;58.20;;;23.90;;
84521;SDS011;74758;50.066;20.008;2024-03-06T02:32:46;62.70;;;24.60;;
84521;SDS011;74758;50.066;20.008;2024-03-06T02:33:49;60.90;;;23.70;;
84521;SDS011;74758;50.066;20.008;2024-03-06T02:34:51;59.80;;;23.70;;
84521;SDS011;74758;50.066;20.008;2024-03-06T02:35:53;63.20;;;24.30;;
84521;SDS011;74758;50.066;20.008;2024-03-06T02:36:54;62.50;;;23.60;;
84521;SDS011;74758;50.066;20.008;2024-03-06T02:37:56;64.30;;;24.80;;
84521;SDS011;74758;50.066;20.008;2024-03-06T02:38:59;62.10;;;24.20;;
84521;SDS011;74758;50.066;20.008;2024-03-06T02:40:01;59.40;;;25.60;;
84521;SDS011;74758;50.066;20.008;2024-03-06T02:41:02;55.50;;;25.10;;
84521;SDS011;74758;50.066;20.008;2024-03-06T02:42:04;62.30;;;24.00;;
84521;SDS011;74758;50.066;20.008;2024-03-06T02:43:06;61.30;;;25.50;;
84521;SDS011;74758;50.066;20.008;2024-03-06T02:44:08;59.10;;;22.40;;
84521;SDS011;74758;50.066;20.008;2024-03-06T02:45:10;59.70;;;22.70;;
84521;SDS011;74758;50.066;20.008;2024-03-06T02:46:12;55.40;;;23.10;;
84521;SDS011;74758;50.066;20.008;2024-03-06T02:47:13;53.30;;;21.50;;
84521;SDS011;74758;50.066;20.008;2024-03-06T02:48:15;53.20;;;22.90;;
84521;SDS011;74758;50.066;20.008;2024-03-06T02:49:17;50.70;;;21.00;;
84521;SDS011;74758;50.066;20.008;2024-03-06T02:50:19;58.80;;;22.40;;
84521;SDS011;74758;50.066;20.008;2024-03-06T02:51:22;48.20;;;21.30;;
84521;SDS011;74758;50.066;20.008;2024-03-06T02:52:24;57.40;;;22.80;;
84521;SDS011;74758;50.066;20.008;2024-03-06T02:53:25;52.00;;;21.70;;
84521;SDS011;74758;50.066;20.008;2024-03-06T02:54:29;55.40;;;21.90;;
84521;SDS011;74758;50.066;20.008;2024-03-06T02:55:31;55.90;;;22.30;;
84521;SDS011;74758;50.066;20.008;2024-03-06T02:56:33;54.30;;;21.50;;
84521;SDS011;74758;50.066;20.008;2024-03-06T02:57:34;50.70;;;22.00;;
84521;SDS011;74758;50.066;20.008;2024-03-06T02:58:36;57.20;;;22.80;;
84521;SDS011;74758;50.066;20.008;2024-03-06T02:59:39;52.90;;;21.80;;
84521;SDS011;74758;50.066;20.008;2024-03-06T03:00:42;48.80;;;20.60;;
84521;SDS011;74758;50.066;20.008;2024-03-06T03:01:45;53.30;;;22.20;;
84521;SDS011;74758;50.066;20.008;2024-03-06T03:02:46;51.20;;;21.30;;
84521;SDS011;74758;50.066;20.008;2024-03-06T03:03:48;53.90;;;22.70;;
84521;SDS011;74758;50.066;20.008;2024-03-06T03:04:50;57.90;;;23.10;;
84521;SDS011;74758;50.066;20.008;2024-03-06T03:05:53;53.70;;;23.70;;
84521;SDS011;74758;50.066;20.008;2024-03-06T03:06:55;51.30;;;22.20;;
84521;SDS011;74758;50.066;20.008;2024-03-06T03:07:57;54.40;;;22.60;;
84521;SDS011;74758;50.066;20.008;2024-03-06T03:08:59;52.50;;;23.60;;
84521;SDS011;74758;50.066;20.008;2024-03-06T03:10:00;53.00;;;21.30;;
84521;SDS011;74758;50.066;20.008;2024-03-06T03:11:02;51.90;;;22.20;;
84521;SDS011;74758;50.066;20.008;2024-03-06T03:12:05;54.00;;;22.30;;
84521;SDS011;74758;50.066;20.008;2024-03-06T03:13:07;55.50;;;23.30;;
84521;SDS011;74758;50.066;20.008;2024-03-06T03:14:08;53.10;;;21.10;;
84521;SDS011;74758;50.066;20.008;2024-03-06T03:15:10;53.80;;;22.80;;
84521;SDS011;74758;50.066;20.008;2024-03-06T03:16:16;56.50;;;23.70;;
84521;SDS011;74758;50.066;20.008;2024-03-06T03:17:19;52.60;;;22.30;;
84521;SDS011;74758;50.066;20.008;2024-03-06T03:18:21;57.20;;;24.90;;
84521;SDS011;74758;50.066;20.008;2024-03-06T03:19:22;58.90;;;24.40;;
84521;SDS011;74758;50.066;20.008;2024-03-06T03:20:24;52.90;;;26.10;;
84521;SDS011;74758;50.066;20.008;2024-03-06T03:21:26;49.80;;;20.90;;
84521;SDS011;74758;50.066;20.008;2024-03-06T03:22:27;53.90;;;21.90;;
84521;SDS011;74758;50.066;20.008;2024-03-06T03:23:29;56.60;;;22.50;;
84521;SDS011;74758;50.066;20.008;2024-03-06T03:24:31;51.00;;;22.20;;
84521;SDS011;74758;50.066;20.008;2024-03-06T03:25:32;55.50;;;22.80;;
84521;SDS011;74758;50.066;20.008;2024-03-06T03:26:35;57.70;;;22.40;;
84521;SDS011;74758;50.066;20.008;2024-03-06T03:27:41;53.40;;;23.40;;
84521;SDS011;74758;50.066;20.008;2024-03-06T03:28:45;54.10;;;22.90;;
84521;SDS011;74758;50.066;20.008;2024-03-06T03:29:47;54.10;;;22.50;;
84521;SDS011;74758;50.066;20.008;2024-03-06T03:30:48;56.20;;;22.60;;
84521;SDS011;74758;50.066;20.008;2024-03-06T03:31:50;60.20;;;24.00;;
84521;SDS011;74758;50.066;20.008;2024-03-06T03:32:52;50.30;;;21.30;;
84521;SDS011;74758;50.066;20.008;2024-03-06T03:33:54;58.40;;;22.40;;
84521;SDS011;74758;50.066;20.008;2024-03-06T03:34:55;59.70;;;23.60;;
84521;SDS011;74758;50.066;20.008;2024-03-06T03:35:57;57.10;;;24.50;;
84521;SDS011;74758;50.066;20.008;2024-03-06T03:36:59;58.60;;;23.30;;
84521;SDS011;74758;50.066;20.008;2024-03-06T03:38:00;54.80;;;21.10;;
84521;SDS011;74758;50.066;20.008;2024-03-06T03:39:02;55.60;;;23.00;;
84521;SDS011;74758;50.066;20.008;2024-03-06T03:40:05;55.00;;;21.70;;
84521;SDS011;74758;50.066;20.008;2024-03-06T03:41:08;49.40;;;22.50;;
84521;SDS011;74758;50.066;20.008;2024-03-06T03:42:14;52.10;;;21.30;;
84521;SDS011;74758;50.066;20.008;2024-03-06T03:43:16;51.50;;;21.90;;
84521;SDS011;74758;50.066;20.008;2024-03-06T03:44:18;56.10;;;23.10;;
84521;SDS011;74758;50.066;20.008;2024-03-06T03:45:20;58.90;;;23.00;;
84521;SDS011;74758;50.066;20.008;2024-03-06T03:46:22;58.40;;;24.30;;
84521;SDS011;74758;50.066;20.008;2024-03-06T03:47:23;56.10;;;24.10;;
84521;SDS011;74758;50.066;20.008;2024-03-06T03:48:25;56.20;;;22.30;;
84521;SDS011;74758;50.066;20.008;2024-03-06T03:49:27;61.50;;;23.20;;
84521;SDS011;74758;50.066;20.008;2024-03-06T03:50:28;59.10;;;24.10;;
84521;SDS011;74758;50.066;20.008;2024-03-06T03:51:31;62.00;;;25.60;;
84521;SDS011;74758;50.066;20.008;2024-03-06T03:52:32;58.90;;;25.10;;
84521;SDS011;74758;50.066;20.008;2024-03-06T03:53:34;57.80;;;24.00;;
84521;SDS011;74758;50.066;20.008;2024-03-06T03:54:36;61.50;;;23.60;;
84521;SDS011;74758;50.066;20.008;2024-03-06T03:55:38;63.50;;;24.80;;
84521;SDS011;74758;50.066;20.008;2024-03-06T03:56:40;58.40;;;24.20;;
84521;SDS011;74758;50.066;20.008;2024-03-06T03:57:41;54.10;;;23.60;;
84521;SDS011;74758;50.066;20.008;2024-03-06T03:58:43;56.20;;;22.90;;
84521;SDS011;74758;50.066;20.008;2024-03-06T03:59:45;54.70;;;22.10;;
84521;SDS011;74758;50.066;20.008;2024-03-06T04:00:47;60.70;;;24.70;;
84521;SDS011;74758;50.066;20.008;2024-03-06T04:01:49;60.10;;;23.90;;
84521;SDS011;74758;50.066;20.008;2024-03-06T04:02:51;60.50;;;23.90;;
84521;SDS011;74758;50.066;20.008;2024-03-06T04:03:53;60.40;;;23.90;;
84521;SDS011;74758;50.066;20.008;2024-03-06T04:04:54;57.10;;;23.80;;
84521;SDS011;74758;50.066;20.008;2024-03-06T04:05:56;59.60;;;24.00;;
84521;SDS011;74758;50.066;20.008;2024-03-06T04:06:58;64.60;;;27.00;;
84521;SDS011;74758;50.066;20.008;2024-03-06T04:08:01;64.40;;;26.90;;
84521;SDS011;74758;50.066;20.008;2024-03-06T04:09:02;57.50;;;23.80;;
84521;SDS011;74758;50.066;20.008;2024-03-06T04:10:06;67.60;;;24.80;;
84521;SDS011;74758;50.066;20.008;2024-03-06T04:11:11;58.80;;;24.00;;
84521;SDS011;74758;50.066;20.008;2024-03-06T04:12:13;62.90;;;24.80;;
84521;SDS011;74758;50.066;20.008;2024-03-06T04:13:15;58.80;;;24.40;;
84521;SDS011;74758;50.066;20.008;2024-03-06T04:14:18;58.30;;;24.10;;
84521;SDS011;74758;50.066;20.008;2024-03-06T04:15:20;57.20;;;23.60;;
84521;SDS011;74758;50.066;20.008;2024-03-06T04:16:23;59.20;;;22.80;;
84521;SDS011;74758;50.066;20.008;2024-03-06T04:17:25;57.20;;;24.10;;
84521;SDS011;74758;50.066;20.008;2024-03-06T04:18:26;57.10;;;24.10;;
84521;SDS011;74758;50.066;20.008;2024-03-06T04:19:28;55.30;;;24.20;;
84521;SDS011;74758;50.066;20.008;2024-03-06T04:20:29;53.00;;;21.90;;
84521;SDS011;74758;50.066;20.008;2024-03-06T04:21:31;60.90;;;21.60;;
84521;SDS011;74758;50.066;20.008;2024-03-06T04:22:33;53.10;;;22.60;;
84521;SDS011;74758;50.066;20.008;2024-03-06T04:23:35;58.80;;;22.50;;
84521;SDS011;74758;50.066;20.008;2024-03-06T04:24:40;60.60;;;24.20;;
84521;SDS011;74758;50.066;20.008;2024-03-06T04:26:44;50.70;;;20.90;;
84521;SDS011;74758;50.066;20.008;2024-03-06T04:27:46;53.50;;;22.00;;
84521;SDS011;74758;50.066;20.008;2024-03-06T04:28:48;61.00;;;22.30;;
84521;SDS011;74758;50.066;20.008;2024-03-06T04:29:49;57.30;;;23.20;;
84521;SDS011;74758;50.066;20.008;2024-03-06T04:30:51;54.20;;;23.20;;
84521;SDS011;74758;50.066;20.008;2024-03-06T04:31:53;55.70;;;26.00;;
84521;SDS011;74758;50.066;20.008;2024-03-06T04:32:55;54.60;;;22.00;;
84521;SDS011;74758;50.066;20.008;2024-03-06T04:33:57;51.20;;;21.70;;
84521;SDS011;74758;50.066;20.008;2024-03-06T04:34:58;55.80;;;25.10;;
84521;SDS011;74758;50.066;20.008;2024-03-06T04:36:01;56.60;;;23.40;;
84521;SDS011;74758;50.066;20.008;2024-03-06T04:37:04;53.70;;;21.80;;
84521;SDS011;74758;50.066;20.008;2024-03-06T04:38:06;53.60;;;22.30;;
84521;SDS011;74758;50.066;20.008;2024-03-06T04:39:08;58.30;;;24.10;;
84521;SDS011;74758;50.066;20.008;2024-03-06T04:40:10;45.50;;;19.30;;
84521;SDS011;74758;50.066;20.008;2024-03-06T04:41:12;48.50;;;22.30;;
84521;SDS011;74758;50.066;20.008;2024-03-06T04:42:13;51.20;;;22.70;;
84521;SDS011;74758;50.066;20.008;2024-03-06T04:43:15;56.30;;;22.90;;
84521;SDS011;74758;50.066;20.008;2024-03-06T04:44:17;57.60;;;22.60;;
84521;SDS011;74758;50.066;20.008;2024-03-06T04:45:18;56.10;;;22.60;;
84521;SDS011;74758;50.066;20.008;2024-03-06T04:46:20;54.30;;;23.50;;
84521;SDS011;74758;50.066;20.008;2024-03-06T04:47:23;56.10;;;22.60;;
84521;SDS011;74758;50.066;20.008;2024-03-06T04:48:30;56.70;;;23.30;;
84521;SDS011;74758;50.066;20.008;2024-03-06T04:49:33;60.10;;;23.40;;
84521;SDS011;74758;50.066;20.008;2024-03-06T04:50:37;53.80;;;22.50;;
84521;SDS011;74758;50.066;20.008;2024-03-06T04:51:39;52.70;;;21.70;;
84521;SDS011;74758;50.066;20.008;2024-03-06T04:52:41;52.70;;;24.30;;
84521;SDS011;74758;50.066;20.008;2024-03-06T04:53:43;56.00;;;22.60;;
84521;SDS011;74758;50.066;20.008;2024-03-06T04:54:44;55.60;;;21.80;;
84521;SDS011;74758;50.066;20.008;2024-03-06T04:55:46;50.40;;;25.80;;
84521;SDS011;74758;50.066;20.008;2024-03-06T04:56:48;51.30;;;21.30;;
84521;SDS011;74758;50.066;20.008;2024-03-06T04:57:51;52.60;;;22.50;;
84521;SDS011;74758;50.066;20.008;2024-03-06T04:58:54;51.50;;;21.90;;
84521;SDS011;74758;50.066;20.008;2024-03-06T04:59:56;56.20;;;23.60;;
84521;SDS011;74758;50.066;20.008;2024-03-06T05:00:59;56.60;;;22.90;;
84521;SDS011;74758;50.066;20.008;2024-03-06T05:02:01;51.00;;;21.50;;
84521;SDS011;74758;50.066;20.008;2024-03-06T05:03:05;51.20;;;22.20;;
84521;SDS011;74758;50.066;20.008;2024-03-06T05:04:24;58.60;;;23.80;;
84521;SDS011;74758;50.066;20.008;2024-03-06T05:05:43;55.40;;;22.40;;
84521;SDS011;74758;50.066;20.008;2024-03-06T05:07:02;54.80;;;21.20;;
84521;SDS011;74758;50.066;20.008;2024-03-06T05:08:22;53.30;;;20.50;;
84521;SDS011;74758;50.066;20.008;2024-03-06T05:09:41;53.80;;;22.30;;
84521;SDS011;74758;50.066;20.008;2024-03-06T05:11:00;50.70;;;21.50;;
84521;SDS011;74758;50.066;20.008;2024-03-06T05:12:20;54.60;;;22.00;;
84521;SDS011;74758;50.066;20.008;2024-03-06T05:13:39;50.20;;;21.00;;
84521;SDS011;74758;50.066;20.008;2024-03-06T05:14:59;53.50;;;21.60;;
84521;SDS011;74758;50.066;20.008;2024-03-06T05:16:18;54.70;;;20.50;;
84521;SDS011;74758;50.066;20.008;2024-03-06T05:17:37;55.10;;;20.20;;
84521;SDS011;74758;50.066;20.008;2024-03-06T05:18:56;50.20;;;21.00;;
84521;SDS011;74758;50.066;20.008;2024-03-06T05:20:15;47.90;;;19.30;;
84521;SDS011;74758;50.066;20.008;2024-03-06T05:21:35;53.50;;;20.60;;
84521;SDS011;74758;50.066;20.008;2024-03-06T05:22:54;57.40;;;22.50;;
84521;SDS011;74758;50.066;20.008;2024-03-06T05:24:14;53.50;;;21.40;;
84521;SDS011;74758;50.066;20.008;2024-03-06T05:25:33;54.00;;;22.10;;
84521;SDS011;74758;50.066;20.008;2024-03-06T05:26:52;53.50;;;20.30;;
84521;SDS011;74758;50.066;20.008;2024-03-06T05:28:11;58.50;;;23.20;;
84521;SDS011;74758;50.066;20.008;2024-03-06T05:29:30;55.20;;;23.30;;
84521;SDS011;74758;50.066;20.008;2024-03-06T05:30:49;60.20;;;22.20;;
84521;SDS011;74758;50.066;20.008;2024-03-06T05:32:08;53.60;;;21.60;;
84521;SDS011;74758;50.066;20.008;2024-03-06T05:33:28;52.10;;;21.20;;
84521;SDS011;74758;50.066;20.008;2024-03-06T05:34:49;53.90;;;22.20;;
84521;SDS011;74758;50.066;20.008;2024-03-06T05:36:08;53.90;;;21.70;;
84521;SDS011;74758;50.066;20.008;2024-03-06T05:37:27;51.70;;;19.80;;
84521;SDS011;74758;50.066;20.008;2024-03-06T05:38:47;44.20;;;16.90;;
84521;SDS011;74758;50.066;20.008;2024-03-06T05:40:08;48.40;;;19.60;;
84521;SDS011;74758;50.066;20.008;2024-03-06T05:41:28;44.80;;;17.50;;
84521;SDS011;74758;50.066;20.008;2024-03-06T05:42:47;48.30;;;19.50;;
84521;SDS011;74758;50.066;20.008;2024-03-06T05:44:06;46.70;;;19.50;;
84521;SDS011;74758;50.066;20.008;2024-03-06T05:45:25;45.80;;;18.10;;
84521;SDS011;74758;50.066;20.008;2024-03-06T05:46:44;53.90;;;20.90;;
84521;SDS011;74758;50.066;20.008;2024-03-06T05:48:04;53.50;;;20.60;;
84521;SDS011;74758;50.066;20.008;2024-03-06T05:49:23;56.90;;;21.00;;
84521;SDS011;74758;50.066;20.008;2024-03-06T05:50:42;55.30;;;23.70;;
84521;SDS011;74758;50.066;20.008;2024-03-06T05:52:01;56.70;;;22.20;;
84521;SDS011;74758;50.066;20.008;2024-03-06T05:53:21;55.80;;;21.50;;
84521;SDS011;74758;50.066;20.008;2024-03-06T05:54:40;59.30;;;22.80;;
84521;SDS011;74758;50.066;20.008;2024-03-06T05:55:59;54.10;;;20.90;;
84521;SDS011;74758;50.066;20.008;2024-03-06T05:57:18;46.70;;;18.60;;
84521;SDS011;74758;50.066;20.008;2024-03-06T05:58:37;38.80;;;15.40;;
84521;SDS011;74758;50.066;20.008;2024-03-06T05:59:39;57.10;;;19.70;;
84521;SDS011;74758;50.066;20.008;2024-03-06T06:00:41;52.90;;;21.50;;
84521;SDS011;74758;50.066;20.008;2024-03-06T06:01:44;52.80;;;21.40;;
84521;SDS011;74758;50.066;20.008;2024-03-06T06:02:46;51.30;;;19.80;;
84521;SDS011;74758;50.066;20.008;2024-03-06T06:03:48;53.30;;;20.00;;
84521;SDS011;74758;50.066;20.008;2024-03-06T06:04:50;48.20;;;20.40;;
84521;SDS011;74758;50.066;20.008;2024-03-06T06:06:11;53.40;;;21.70;;
84521;SDS011;74758;50.066;20.008;2024-03-06T06:07:17;58.70;;;24.40;;
84521;SDS011;74758;50.066;20.008;2024-03-06T06:08:19;59.60;;;22.70;;
84521;SDS011;74758;50.066;20.008;2024-03-06T06:09:20;61.20;;;25.40;;
84521;SDS011;74758;50.066;20.008;2024-03-06T06:10:22;61.10;;;23.40;;
84521;SDS011;74758;50.066;20.008;2024-03-06T06:11:24;58.10;;;24.90;;